Ephrata, Washington
Current Conditions -  °F | °C
As of 12:53 PM on Friday 28 Nov 2014 (Local Time) from KEPH Reporting Station
Clear Clear  
Wind Chill: 59°   Ceiling: Unl
Heat Index: 59°   Visibility: 10mi
Dew Point: 45°   Wind: 32mph
Humidity: 60%   Direction: 220°SW
Pressure: 29.32"   Gusts: 47mph
Location:  47.32°N, 119.55°W
Report Text: KEPH 282053Z AUTO 22028G41KT 10SM CLR 15/07 A2932 RMK AO2 PK WND 22041/2043 SLP930 T01500072 58037
Loading
Personal Weather Stations






























Interactive Weather Map New forecast layout! Learn more

10-Day Weather Forecast

Advertisements
Track Severe Weather on mobile